sensor_id;sensor_type;location;lat;lon;timestamp;P1;durP1;ratioP1;P2;durP2;ratioP2
46377;SDS011;32083;47.360;9.650;2023-12-28T05:00:19;10.60;;;8.10;;
46377;SDS011;32083;47.360;9.650;2023-12-28T05:02:45;12.10;;;8.52;;
46377;SDS011;32083;47.360;9.650;2023-12-28T05:05:12;9.40;;;7.38;;
46377;SDS011;32083;47.360;9.650;2023-12-28T05:07:38;10.60;;;8.38;;
46377;SDS011;32083;47.360;9.650;2023-12-28T05:10:04;10.85;;;7.90;;
46377;SDS011;32083;47.360;9.650;2023-12-28T05:12:31;13.98;;;10.02;;
46377;SDS011;32083;47.360;9.650;2023-12-28T05:14:57;21.48;;;14.18;;
46377;SDS011;32083;47.360;9.650;2023-12-28T05:17:23;18.05;;;12.02;;
46377;SDS011;32083;47.360;9.650;2023-12-28T05:19:49;17.25;;;12.45;;
46377;SDS011;32083;47.360;9.650;2023-12-28T05:22:15;18.42;;;11.52;;
46377;SDS011;32083;47.360;9.650;2023-12-28T05:24:41;16.73;;;10.57;;
46377;SDS011;32083;47.360;9.650;2023-12-28T05:27:07;16.15;;;10.75;;
46377;SDS011;32083;47.360;9.650;2023-12-28T05:29:33;13.13;;;10.30;;
46377;SDS011;32083;47.360;9.650;2023-12-28T05:31:59;12.57;;;8.50;;
46377;SDS011;32083;47.360;9.650;2023-12-28T05:34:25;10.43;;;8.88;;
46377;SDS011;32083;47.360;9.650;2023-12-28T05:36:52;13.52;;;10.18;;
46377;SDS011;32083;47.360;9.650;2023-12-28T05:39:18;12.07;;;8.73;;
46377;SDS011;32083;47.360;9.650;2023-12-28T05:41:44;10.73;;;8.63;;
46377;SDS011;32083;47.360;9.650;2023-12-28T05:44:12;12.50;;;7.57;;
46377;SDS011;32083;47.360;9.650;2023-12-28T05:46:39;12.35;;;9.20;;
46377;SDS011;32083;47.360;9.650;2023-12-28T05:49:05;15.57;;;10.75;;
46377;SDS011;32083;47.360;9.650;2023-12-28T05:51:38;16.77;;;9.93;;
46377;SDS011;32083;47.360;9.650;2023-12-28T05:54:05;19.63;;;13.82;;
46377;SDS011;32083;47.360;9.650;2023-12-28T05:56:32;32.25;;;18.27;;
46377;SDS011;32083;47.360;9.650;2023-12-28T05:58:58;40.90;;;24.58;;
46377;SDS011;32083;47.360;9.650;2023-12-28T06:01:24;54.33;;;30.65;;
46377;SDS011;32083;47.360;9.650;2023-12-28T06:03:50;51.25;;;26.02;;
46377;SDS011;32083;47.360;9.650;2023-12-28T06:06:17;50.50;;;29.20;;
46377;SDS011;32083;47.360;9.650;2023-12-28T06:08:44;70.57;;;35.67;;
46377;SDS011;32083;47.360;9.650;2023-12-28T06:11:10;65.72;;;33.22;;
46377;SDS011;32083;47.360;9.650;2023-12-28T06:13:36;61.15;;;30.75;;
46377;SDS011;32083;47.360;9.650;2023-12-28T06:16:02;67.63;;;30.55;;
46377;SDS011;32083;47.360;9.650;2023-12-28T06:18:29;51.58;;;28.08;;
46377;SDS011;32083;47.360;9.650;2023-12-28T06:20:55;45.83;;;24.90;;
46377;SDS011;32083;47.360;9.650;2023-12-28T06:23:21;41.05;;;22.75;;
46377;SDS011;32083;47.360;9.650;2023-12-28T06:25:47;34.95;;;18.70;;
46377;SDS011;32083;47.360;9.650;2023-12-28T06:28:13;22.38;;;15.45;;
46377;SDS011;32083;47.360;9.650;2023-12-28T06:30:39;22.05;;;14.18;;
46377;SDS011;32083;47.360;9.650;2023-12-28T06:33:05;23.52;;;13.65;;
46377;SDS011;32083;47.360;9.650;2023-12-28T06:35:31;20.17;;;13.57;;
46377;SDS011;32083;47.360;9.650;2023-12-28T06:37:57;13.75;;;7.90;;
46377;SDS011;32083;47.360;9.650;2023-12-28T06:40:23;10.05;;;7.25;;
46377;SDS011;32083;47.360;9.650;2023-12-28T06:42:49;9.70;;;7.07;;
46377;SDS011;32083;47.360;9.650;2023-12-28T06:45:15;9.40;;;5.63;;
46377;SDS011;32083;47.360;9.650;2023-12-28T06:47:41;9.13;;;7.47;;
46377;SDS011;32083;47.360;9.650;2023-12-28T06:50:07;13.23;;;8.88;;
46377;SDS011;32083;47.360;9.650;2023-12-28T06:52:34;11.98;;;7.18;;
46377;SDS011;32083;47.360;9.650;2023-12-28T06:55:00;13.75;;;9.10;;
46377;SDS011;32083;47.360;9.650;2023-12-28T06:57:26;14.85;;;11.55;;
46377;SDS011;32083;47.360;9.650;2023-12-28T06:59:52;14.23;;;10.68;;
46377;SDS011;32083;47.360;9.650;2023-12-28T07:02:18;15.18;;;11.20;;
46377;SDS011;32083;47.360;9.650;2023-12-28T07:04:44;16.90;;;11.25;;
46377;SDS011;32083;47.360;9.650;2023-12-28T07:07:10;20.77;;;12.48;;
46377;SDS011;32083;47.360;9.650;2023-12-28T07:09:35;15.85;;;11.48;;
46377;SDS011;32083;47.360;9.650;2023-12-28T07:12:02;16.48;;;10.82;;
46377;SDS011;32083;47.360;9.650;2023-12-28T07:14:28;17.33;;;12.63;;
46377;SDS011;32083;47.360;9.650;2023-12-28T07:16:54;13.82;;;9.80;;
46377;SDS011;32083;47.360;9.650;2023-12-28T07:19:20;11.75;;;9.70;;
46377;SDS011;32083;47.360;9.650;2023-12-28T07:21:46;14.18;;;9.30;;
46377;SDS011;32083;47.360;9.650;2023-12-28T07:24:12;14.13;;;9.50;;
46377;SDS011;32083;47.360;9.650;2023-12-28T07:26:38;10.32;;;8.60;;
46377;SDS011;32083;47.360;9.650;2023-12-28T07:29:04;15.35;;;11.20;;
46377;SDS011;32083;47.360;9.650;2023-12-28T07:31:30;12.50;;;8.85;;
46377;SDS011;32083;47.360;9.650;2023-12-28T07:33:57;10.50;;;8.90;;
46377;SDS011;32083;47.360;9.650;2023-12-28T07:36:23;16.52;;;8.57;;
46377;SDS011;32083;47.360;9.650;2023-12-28T07:38:49;11.45;;;7.07;;
46377;SDS011;32083;47.360;9.650;2023-12-28T07:41:15;10.40;;;8.50;;
46377;SDS011;32083;47.360;9.650;2023-12-28T07:43:41;10.20;;;7.82;;
46377;SDS011;32083;47.360;9.650;2023-12-28T07:46:08;12.15;;;6.45;;
46377;SDS011;32083;47.360;9.650;2023-12-28T07:48:34;6.95;;;5.65;;
46377;SDS011;32083;47.360;9.650;2023-12-28T07:51:04;8.02;;;6.38;;
46377;SDS011;32083;47.360;9.650;2023-12-28T07:53:30;10.65;;;8.55;;
46377;SDS011;32083;47.360;9.650;2023-12-28T07:55:56;18.85;;;12.40;;
46377;SDS011;32083;47.360;9.650;2023-12-28T07:58:23;21.15;;;14.60;;
46377;SDS011;32083;47.360;9.650;2023-12-28T08:00:49;16.83;;;13.50;;
46377;SDS011;32083;47.360;9.650;2023-12-28T08:03:15;15.85;;;12.20;;
46377;SDS011;32083;47.360;9.650;2023-12-28T08:05:41;15.23;;;12.30;;
46377;SDS011;32083;47.360;9.650;2023-12-28T08:08:07;15.02;;;12.52;;
46377;SDS011;32083;47.360;9.650;2023-12-28T08:10:33;11.50;;;9.18;;
46377;SDS011;32083;47.360;9.650;2023-12-28T08:12:59;14.90;;;10.90;;
46377;SDS011;32083;47.360;9.650;2023-12-28T08:15:25;13.05;;;9.80;;
46377;SDS011;32083;47.360;9.650;2023-12-28T08:17:51;13.98;;;10.18;;
46377;SDS011;32083;47.360;9.650;2023-12-28T08:20:17;17.80;;;15.68;;
46377;SDS011;32083;47.360;9.650;2023-12-28T08:22:43;23.73;;;18.77;;
46377;SDS011;32083;47.360;9.650;2023-12-28T08:25:10;17.15;;;12.57;;
46377;SDS011;32083;47.360;9.650;2023-12-28T08:27:36;15.45;;;12.57;;
46377;SDS011;32083;47.360;9.650;2023-12-28T08:30:02;15.15;;;13.43;;
46377;SDS011;32083;47.360;9.650;2023-12-28T08:32:29;15.00;;;12.38;;
46377;SDS011;32083;47.360;9.650;2023-12-28T08:34:55;15.25;;;13.10;;
46377;SDS011;32083;47.360;9.650;2023-12-28T08:37:21;18.73;;;14.60;;
46377;SDS011;32083;47.360;9.650;2023-12-28T08:39:47;21.30;;;15.88;;
46377;SDS011;32083;47.360;9.650;2023-12-28T08:42:13;20.38;;;15.35;;
46377;SDS011;32083;47.360;9.650;2023-12-28T08:44:39;20.55;;;14.35;;
46377;SDS011;32083;47.360;9.650;2023-12-28T08:47:05;14.60;;;12.15;;
46377;SDS011;32083;47.360;9.650;2023-12-28T08:49:31;13.13;;;9.25;;
46377;SDS011;32083;47.360;9.650;2023-12-28T08:51:58;8.75;;;7.07;;
46377;SDS011;32083;47.360;9.650;2023-12-28T08:54:24;9.93;;;6.60;;
46377;SDS011;32083;47.360;9.650;2023-12-28T08:56:50;10.55;;;7.07;;
46377;SDS011;32083;47.360;9.650;2023-12-28T08:59:16;9.13;;;6.13;;
46377;SDS011;32083;47.360;9.650;2023-12-28T09:01:42;10.80;;;5.05;;
46377;SDS011;32083;47.360;9.650;2023-12-28T09:04:08;7.35;;;5.25;;
46377;SDS011;32083;47.360;9.650;2023-12-28T09:06:35;7.80;;;5.85;;
46377;SDS011;32083;47.360;9.650;2023-12-28T09:09:01;7.50;;;6.15;;
46377;SDS011;32083;47.360;9.650;2023-12-28T09:11:28;9.02;;;7.05;;
46377;SDS011;32083;47.360;9.650;2023-12-28T09:13:55;11.20;;;6.88;;
46377;SDS011;32083;47.360;9.650;2023-12-28T09:16:21;8.57;;;7.38;;
46377;SDS011;32083;47.360;9.650;2023-12-28T09:18:47;10.93;;;8.80;;
46377;SDS011;32083;47.360;9.650;2023-12-28T09:21:13;26.30;;;17.58;;
46377;SDS011;32083;47.360;9.650;2023-12-28T09:23:39;22.35;;;14.65;;
46377;SDS011;32083;47.360;9.650;2023-12-28T09:26:07;21.73;;;15.32;;
46377;SDS011;32083;47.360;9.650;2023-12-28T09:28:34;15.20;;;11.57;;
46377;SDS011;32083;47.360;9.650;2023-12-28T09:31:00;13.60;;;10.70;;
46377;SDS011;32083;47.360;9.650;2023-12-28T09:33:27;11.48;;;8.20;;
46377;SDS011;32083;47.360;9.650;2023-12-28T09:35:53;11.00;;;8.48;;
46377;SDS011;32083;47.360;9.650;2023-12-28T09:38:19;12.30;;;9.07;;
46377;SDS011;32083;47.360;9.650;2023-12-28T09:40:46;15.77;;;7.72;;
46377;SDS011;32083;47.360;9.650;2023-12-28T09:46:05;10.60;;;7.28;;
46377;SDS011;32083;47.360;9.650;2023-12-28T09:48:33;9.93;;;8.02;;
46377;SDS011;32083;47.360;9.650;2023-12-28T09:51:00;9.20;;;7.72;;
46377;SDS011;32083;47.360;9.650;2023-12-28T09:53:26;9.68;;;7.40;;
46377;SDS011;32083;47.360;9.650;2023-12-28T09:55:52;7.63;;;5.78;;
46377;SDS011;32083;47.360;9.650;2023-12-28T09:58:19;8.15;;;6.45;;
46377;SDS011;32083;47.360;9.650;2023-12-28T10:00:46;8.38;;;7.05;;
46377;SDS011;32083;47.360;9.650;2023-12-28T10:03:14;12.55;;;6.38;;
46377;SDS011;32083;47.360;9.650;2023-12-28T10:05:41;8.10;;;6.78;;
46377;SDS011;32083;47.360;9.650;2023-12-28T10:08:07;7.85;;;5.93;;
46377;SDS011;32083;47.360;9.650;2023-12-28T10:10:34;11.73;;;7.68;;
46377;SDS011;32083;47.360;9.650;2023-12-28T10:13:00;16.27;;;6.68;;
46377;SDS011;32083;47.360;9.650;2023-12-28T10:15:27;12.27;;;5.53;;
46377;SDS011;32083;47.360;9.650;2023-12-28T10:17:53;6.95;;;5.70;;
46377;SDS011;32083;47.360;9.650;2023-12-28T10:20:19;10.52;;;5.95;;
46377;SDS011;32083;47.360;9.650;2023-12-28T10:22:45;10.27;;;6.20;;
46377;SDS011;32083;47.360;9.650;2023-12-28T10:25:13;10.52;;;5.90;;
46377;SDS011;32083;47.360;9.650;2023-12-28T10:27:39;11.10;;;5.55;;
46377;SDS011;32083;47.360;9.650;2023-12-28T10:30:07;10.25;;;5.78;;
46377;SDS011;32083;47.360;9.650;2023-12-28T10:32:35;10.60;;;6.38;;
46377;SDS011;32083;47.360;9.650;2023-12-28T10:35:05;9.73;;;5.88;;
46377;SDS011;32083;47.360;9.650;2023-12-28T10:37:31;10.98;;;7.03;;
46377;SDS011;32083;47.360;9.650;2023-12-28T10:40:00;14.65;;;8.52;;
46377;SDS011;32083;47.360;9.650;2023-12-28T10:42:32;14.73;;;9.43;;
46377;SDS011;32083;47.360;9.650;2023-12-28T10:45:03;10.93;;;9.05;;
46377;SDS011;32083;47.360;9.650;2023-12-28T10:47:37;11.35;;;8.02;;
46377;SDS011;32083;47.360;9.650;2023-12-28T10:50:04;10.77;;;7.90;;
46377;SDS011;32083;47.360;9.650;2023-12-28T10:52:31;10.57;;;6.63;;
46377;SDS011;32083;47.360;9.650;2023-12-28T10:55:05;12.10;;;6.88;;
46377;SDS011;32083;47.360;9.650;2023-12-28T10:57:44;12.13;;;5.40;;
46377;SDS011;32083;47.360;9.650;2023-12-28T11:00:25;8.43;;;6.25;;
46377;SDS011;32083;47.360;9.650;2023-12-28T11:02:56;10.48;;;5.05;;
46377;SDS011;32083;47.360;9.650;2023-12-28T11:05:29;7.85;;;4.70;;
46377;SDS011;32083;47.360;9.650;2023-12-28T11:07:56;6.47;;;4.75;;
46377;SDS011;32083;47.360;9.650;2023-12-28T11:10:26;7.60;;;5.22;;
46377;SDS011;32083;47.360;9.650;2023-12-28T11:12:54;8.70;;;5.05;;
46377;SDS011;32083;47.360;9.650;2023-12-28T11:15:22;7.78;;;5.57;;
46377;SDS011;32083;47.360;9.650;2023-12-28T11:17:51;7.53;;;4.57;;
46377;SDS011;32083;47.360;9.650;2023-12-28T11:20:18;8.10;;;4.40;;
46377;SDS011;32083;47.360;9.650;2023-12-28T11:22:44;9.52;;;4.50;;
46377;SDS011;32083;47.360;9.650;2023-12-28T11:25:14;6.18;;;5.32;;
46377;SDS011;32083;47.360;9.650;2023-12-28T11:27:41;9.82;;;8.45;;
46377;SDS011;32083;47.360;9.650;2023-12-28T11:30:09;10.90;;;9.70;;
46377;SDS011;32083;47.360;9.650;2023-12-28T11:32:36;10.55;;;7.68;;
46377;SDS011;32083;47.360;9.650;2023-12-28T11:35:02;11.02;;;6.60;;
46377;SDS011;32083;47.360;9.650;2023-12-28T11:37:35;8.00;;;5.63;;
46377;SDS011;32083;47.360;9.650;2023-12-28T11:40:10;7.40;;;4.82;;
46377;SDS011;32083;47.360;9.650;2023-12-28T11:42:47;9.18;;;6.75;;
46377;SDS011;32083;47.360;9.650;2023-12-28T11:45:16;15.93;;;10.98;;
46377;SDS011;32083;47.360;9.650;2023-12-28T11:47:43;10.85;;;6.63;;
46377;SDS011;32083;47.360;9.650;2023-12-28T11:50:09;9.50;;;6.32;;
46377;SDS011;32083;47.360;9.650;2023-12-28T11:52:36;9.90;;;6.80;;
46377;SDS011;32083;47.360;9.650;2023-12-28T11:55:02;13.30;;;7.00;;
46377;SDS011;32083;47.360;9.650;2023-12-28T11:57:29;10.70;;;5.93;;
46377;SDS011;32083;47.360;9.650;2023-12-28T11:59:57;8.88;;;5.93;;
46377;SDS011;32083;47.360;9.650;2023-12-28T12:02:24;9.90;;;6.07;;
46377;SDS011;32083;47.360;9.650;2023-12-28T12:04:51;14.27;;;6.10;;
46377;SDS011;32083;47.360;9.650;2023-12-28T12:07:18;14.63;;;6.13;;
46377;SDS011;32083;47.360;9.650;2023-12-28T12:09:44;10.85;;;6.78;;
46377;SDS011;32083;47.360;9.650;2023-12-28T12:12:10;11.90;;;6.78;;
46377;SDS011;32083;47.360;9.650;2023-12-28T12:14:36;11.68;;;7.10;;
46377;SDS011;32083;47.360;9.650;2023-12-28T12:17:03;12.93;;;6.80;;
46377;SDS011;32083;47.360;9.650;2023-12-28T12:19:29;9.05;;;5.80;;
46377;SDS011;32083;47.360;9.650;2023-12-28T12:21:56;15.35;;;7.03;;
46377;SDS011;32083;47.360;9.650;2023-12-28T12:24:22;14.13;;;7.68;;
46377;SDS011;32083;47.360;9.650;2023-12-28T12:26:49;12.20;;;5.80;;
46377;SDS011;32083;47.360;9.650;2023-12-28T12:29:16;8.30;;;6.20;;
46377;SDS011;32083;47.360;9.650;2023-12-28T12:31:43;15.23;;;6.53;;
46377;SDS011;32083;47.360;9.650;2023-12-28T12:34:13;10.82;;;5.20;;
46377;SDS011;32083;47.360;9.650;2023-12-28T12:36:41;11.20;;;6.38;;
46377;SDS011;32083;47.360;9.650;2023-12-28T12:39:09;9.68;;;7.75;;
46377;SDS011;32083;47.360;9.650;2023-12-28T12:41:36;10.98;;;6.82;;
46377;SDS011;32083;47.360;9.650;2023-12-28T12:44:03;11.15;;;7.22;;
46377;SDS011;32083;47.360;9.650;2023-12-28T12:46:30;9.20;;;7.57;;
46377;SDS011;32083;47.360;9.650;2023-12-28T12:49:00;10.43;;;8.55;;
46377;SDS011;32083;47.360;9.650;2023-12-28T12:51:27;11.68;;;6.90;;
46377;SDS011;32083;47.360;9.650;2023-12-28T12:53:57;12.32;;;7.95;;
46377;SDS011;32083;47.360;9.650;2023-12-28T12:56:25;13.68;;;10.15;;
46377;SDS011;32083;47.360;9.650;2023-12-28T12:58:53;15.88;;;9.90;;
46377;SDS011;32083;47.360;9.650;2023-12-28T13:01:20;22.20;;;15.65;;
46377;SDS011;32083;47.360;9.650;2023-12-28T13:03:46;26.80;;;19.60;;
46377;SDS011;32083;47.360;9.650;2023-12-28T13:06:12;26.33;;;19.40;;
46377;SDS011;32083;47.360;9.650;2023-12-28T13:08:38;28.83;;;18.05;;
46377;SDS011;32083;47.360;9.650;2023-12-28T13:11:05;27.52;;;17.55;;
46377;SDS011;32083;47.360;9.650;2023-12-28T13:13:32;21.08;;;13.82;;
46377;SDS011;32083;47.360;9.650;2023-12-28T13:15:58;13.43;;;11.02;;
46377;SDS011;32083;47.360;9.650;2023-12-28T13:18:24;15.18;;;8.90;;
46377;SDS011;32083;47.360;9.650;2023-12-28T13:20:51;13.52;;;8.25;;
46377;SDS011;32083;47.360;9.650;2023-12-28T13:23:17;11.48;;;8.30;;
46377;SDS011;32083;47.360;9.650;2023-12-28T13:25:43;22.08;;;9.40;;
46377;SDS011;32083;47.360;9.650;2023-12-28T13:28:09;12.85;;;7.63;;
46377;SDS011;32083;47.360;9.650;2023-12-28T13:30:37;10.88;;;8.55;;
46377;SDS011;32083;47.360;9.650;2023-12-28T13:33:04;11.60;;;7.18;;
46377;SDS011;32083;47.360;9.650;2023-12-28T13:35:31;12.68;;;8.48;;
46377;SDS011;32083;47.360;9.650;2023-12-28T13:38:00;11.65;;;8.68;;
46377;SDS011;32083;47.360;9.650;2023-12-28T13:40:27;12.57;;;8.23;;
46377;SDS011;32083;47.360;9.650;2023-12-28T13:42:53;20.08;;;11.07;;
46377;SDS011;32083;47.360;9.650;2023-12-28T13:45:19;10.20;;;8.55;;
46377;SDS011;32083;47.360;9.650;2023-12-28T13:47:45;17.25;;;9.60;;
46377;SDS011;32083;47.360;9.650;2023-12-28T13:50:12;11.25;;;8.23;;
46377;SDS011;32083;47.360;9.650;2023-12-28T13:52:38;14.93;;;9.18;;
46377;SDS011;32083;47.360;9.650;2023-12-28T13:55:04;16.42;;;9.98;;
46377;SDS011;32083;47.360;9.650;2023-12-28T13:57:31;17.85;;;10.93;;
46377;SDS011;32083;47.360;9.650;2023-12-28T13:59:57;13.68;;;10.50;;
46377;SDS011;32083;47.360;9.650;2023-12-28T14:02:28;16.45;;;11.82;;
46377;SDS011;32083;47.360;9.650;2023-12-28T14:04:54;16.27;;;10.85;;
46377;SDS011;32083;47.360;9.650;2023-12-28T14:07:21;11.63;;;8.93;;
46377;SDS011;32083;47.360;9.650;2023-12-28T14:09:48;16.27;;;10.75;;
46377;SDS011;32083;47.360;9.650;2023-12-28T14:12:14;13.15;;;9.80;;
46377;SDS011;32083;47.360;9.650;2023-12-28T14:14:40;13.52;;;10.38;;
46377;SDS011;32083;47.360;9.650;2023-12-28T14:17:06;12.65;;;10.25;;
46377;SDS011;32083;47.360;9.650;2023-12-28T14:19:32;19.50;;;12.05;;
46377;SDS011;32083;47.360;9.650;2023-12-28T14:21:59;21.17;;;16.38;;
46377;SDS011;32083;47.360;9.650;2023-12-28T14:24:25;18.05;;;13.68;;
46377;SDS011;32083;47.360;9.650;2023-12-28T14:26:55;29.25;;;18.10;;
46377;SDS011;32083;47.360;9.650;2023-12-28T14:29:21;17.08;;;12.00;;
46377;SDS011;32083;47.360;9.650;2023-12-28T14:31:48;12.82;;;9.88;;
46377;SDS011;32083;47.360;9.650;2023-12-28T14:34:15;13.10;;;9.48;;
46377;SDS011;32083;47.360;9.650;2023-12-28T14:36:41;20.45;;;11.80;;
46377;SDS011;32083;47.360;9.650;2023-12-28T14:39:14;14.85;;;8.55;;
46377;SDS011;32083;47.360;9.650;2023-12-28T14:41:43;14.23;;;9.07;;
46377;SDS011;32083;47.360;9.650;2023-12-28T14:44:09;13.23;;;6.75;;
46377;SDS011;32083;47.360;9.650;2023-12-28T14:46:36;13.85;;;8.43;;
46377;SDS011;32083;47.360;9.650;2023-12-28T14:49:02;12.68;;;9.38;;
46377;SDS011;32083;47.360;9.650;2023-12-28T14:51:29;15.43;;;7.95;;
46377;SDS011;32083;47.360;9.650;2023-12-28T14:53:56;13.02;;;9.20;;
46377;SDS011;32083;47.360;9.650;2023-12-28T14:56:22;25.60;;;9.70;;
46377;SDS011;32083;47.360;9.650;2023-12-28T14:58:48;12.55;;;8.38;;
46377;SDS011;32083;47.360;9.650;2023-12-28T15:01:14;10.00;;;8.45;;
46377;SDS011;32083;47.360;9.650;2023-12-28T15:03:41;11.57;;;9.15;;
46377;SDS011;32083;47.360;9.650;2023-12-28T15:06:08;18.23;;;9.70;;
46377;SDS011;32083;47.360;9.650;2023-12-28T15:08:35;16.55;;;10.35;;
46377;SDS011;32083;47.360;9.650;2023-12-28T15:11:01;25.08;;;9.25;;
46377;SDS011;32083;47.360;9.650;2023-12-28T15:13:28;12.65;;;8.73;;
46377;SDS011;32083;47.360;9.650;2023-12-28T15:15:55;12.68;;;8.93;;
46377;SDS011;32083;47.360;9.650;2023-12-28T15:18:21;11.20;;;8.93;;
46377;SDS011;32083;47.360;9.650;2023-12-28T15:20:48;13.52;;;8.65;;
46377;SDS011;32083;47.360;9.650;2023-12-28T15:23:14;10.93;;;7.57;;
46377;SDS011;32083;47.360;9.650;2023-12-28T15:25:44;15.95;;;9.52;;
46377;SDS011;32083;47.360;9.650;2023-12-28T15:28:10;13.60;;;10.50;;
46377;SDS011;32083;47.360;9.650;2023-12-28T15:30:36;14.55;;;10.43;;
46377;SDS011;32083;47.360;9.650;2023-12-28T15:33:02;17.02;;;11.90;;
46377;SDS011;32083;47.360;9.650;2023-12-28T15:35:28;16.95;;;9.65;;
46377;SDS011;32083;47.360;9.650;2023-12-28T15:37:54;14.25;;;10.05;;
46377;SDS011;32083;47.360;9.650;2023-12-28T15:40:21;13.80;;;10.05;;
46377;SDS011;32083;47.360;9.650;2023-12-28T15:42:49;15.65;;;8.98;;
46377;SDS011;32083;47.360;9.650;2023-12-28T15:45:15;10.52;;;8.48;;
46377;SDS011;32083;47.360;9.650;2023-12-28T15:47:41;13.98;;;9.20;;
46377;SDS011;32083;47.360;9.650;2023-12-28T15:50:07;14.07;;;10.82;;
46377;SDS011;32083;47.360;9.650;2023-12-28T15:52:34;13.32;;;9.23;;
46377;SDS011;32083;47.360;9.650;2023-12-28T15:55:00;10.20;;;7.97;;
46377;SDS011;32083;47.360;9.650;2023-12-28T15:57:26;13.18;;;9.15;;
46377;SDS011;32083;47.360;9.650;2023-12-28T15:59:52;9.85;;;8.30;;
46377;SDS011;32083;47.360;9.650;2023-12-28T16:02:24;16.40;;;11.05;;
46377;SDS011;32083;47.360;9.650;2023-12-28T16:04:51;11.98;;;9.68;;
46377;SDS011;32083;47.360;9.650;2023-12-28T16:07:17;14.68;;;10.57;;
46377;SDS011;32083;47.360;9.650;2023-12-28T16:09:43;17.55;;;11.40;;
46377;SDS011;32083;47.360;9.650;2023-12-28T16:12:09;22.33;;;10.48;;
46377;SDS011;32083;47.360;9.650;2023-12-28T16:14:35;13.52;;;9.90;;
46377;SDS011;32083;47.360;9.650;2023-12-28T16:17:02;14.88;;;11.05;;
46377;SDS011;32083;47.360;9.650;2023-12-28T16:19:28;12.73;;;8.57;;
46377;SDS011;32083;47.360;9.650;2023-12-28T16:21:55;13.88;;;9.63;;
46377;SDS011;32083;47.360;9.650;2023-12-28T16:24:21;22.40;;;12.23;;
46377;SDS011;32083;47.360;9.650;2023-12-28T16:26:48;15.45;;;10.82;;
46377;SDS011;32083;47.360;9.650;2023-12-28T16:29:14;15.27;;;10.23;;
46377;SDS011;32083;47.360;9.650;2023-12-28T16:31:40;45.17;;;33.88;;
46377;SDS011;32083;47.360;9.650;2023-12-28T16:34:06;33.85;;;25.77;;
46377;SDS011;32083;47.360;9.650;2023-12-28T16:36:32;18.90;;;14.93;;
46377;SDS011;32083;47.360;9.650;2023-12-28T16:38:58;16.35;;;12.20;;
46377;SDS011;32083;47.360;9.650;2023-12-28T16:41:25;20.30;;;14.35;;
46377;SDS011;32083;47.360;9.650;2023-12-28T16:43:52;16.70;;;11.30;;
46377;SDS011;32083;47.360;9.650;2023-12-28T16:46:19;10.85;;;8.25;;
46377;SDS011;32083;47.360;9.650;2023-12-28T16:48:46;10.63;;;8.15;;
46377;SDS011;32083;47.360;9.650;2023-12-28T16:51:12;12.52;;;8.45;;
46377;SDS011;32083;47.360;9.650;2023-12-28T16:53:38;9.55;;;7.68;;
46377;SDS011;32083;47.360;9.650;2023-12-28T16:56:04;8.80;;;7.15;;
46377;SDS011;32083;47.360;9.650;2023-12-28T16:58:30;9.55;;;6.97;;
46377;SDS011;32083;47.360;9.650;2023-12-28T17:00:56;12.30;;;10.32;;
46377;SDS011;32083;47.360;9.650;2023-12-28T17:03:22;17.38;;;10.15;;
46377;SDS011;32083;47.360;9.650;2023-12-28T17:05:49;19.00;;;12.98;;
46377;SDS011;32083;47.360;9.650;2023-12-28T17:08:15;14.88;;;9.30;;
46377;SDS011;32083;47.360;9.650;2023-12-28T17:10:41;16.98;;;10.45;;
46377;SDS011;32083;47.360;9.650;2023-12-28T17:13:08;14.48;;;9.90;;
46377;SDS011;32083;47.360;9.650;2023-12-28T17:15:36;15.32;;;11.07;;
46377;SDS011;32083;47.360;9.650;2023-12-28T17:18:03;18.45;;;11.50;;
46377;SDS011;32083;47.360;9.650;2023-12-28T17:20:31;16.67;;;10.52;;
46377;SDS011;32083;47.360;9.650;2023-12-28T17:23:35;18.10;;;12.07;;
46377;SDS011;32083;47.360;9.650;2023-12-28T17:28:36;19.48;;;14.10;;
46377;SDS011;32083;47.360;9.650;2023-12-28T17:31:18;20.15;;;14.90;;
46377;SDS011;32083;47.360;9.650;2023-12-28T17:33:46;20.60;;;15.02;;
46377;SDS011;32083;47.360;9.650;2023-12-28T17:36:13;15.88;;;14.00;;
46377;SDS011;32083;47.360;9.650;2023-12-28T17:38:39;56.05;;;34.05;;
46377;SDS011;32083;47.360;9.650;2023-12-28T17:41:12;29.95;;;21.13;;
46377;SDS011;32083;47.360;9.650;2023-12-28T17:43:51;28.83;;;19.15;;
46377;SDS011;32083;47.360;9.650;2023-12-28T17:49:06;34.90;;;22.70;;
46377;SDS011;32083;47.360;9.650;2023-12-28T17:51:39;26.83;;;19.90;;
46377;SDS011;32083;47.360;9.650;2023-12-28T17:54:05;28.15;;;19.63;;
46377;SDS011;32083;47.360;9.650;2023-12-28T17:56:32;27.02;;;18.00;;
46377;SDS011;32083;47.360;9.650;2023-12-28T17:58:58;30.05;;;19.25;;
46377;SDS011;32083;47.360;9.650;2023-12-28T18:01:24;26.13;;;19.10;;
46377;SDS011;32083;47.360;9.650;2023-12-28T18:03:52;16.02;;;13.43;;
46377;SDS011;32083;47.360;9.650;2023-12-28T18:06:18;15.75;;;11.73;;
46377;SDS011;32083;47.360;9.650;2023-12-28T18:08:44;19.95;;;13.48;;
46377;SDS011;32083;47.360;9.650;2023-12-28T18:11:10;25.10;;;17.67;;
46377;SDS011;32083;47.360;9.650;2023-12-28T18:13:36;19.40;;;13.90;;
46377;SDS011;32083;47.360;9.650;2023-12-28T18:16:03;21.63;;;16.58;;
46377;SDS011;32083;47.360;9.650;2023-12-28T18:18:29;35.83;;;23.10;;
46377;SDS011;32083;47.360;9.650;2023-12-28T18:20:55;32.05;;;23.77;;
46377;SDS011;32083;47.360;9.650;2023-12-28T18:23:21;22.77;;;17.40;;
46377;SDS011;32083;47.360;9.650;2023-12-28T18:25:47;20.77;;;14.13;;
46377;SDS011;32083;47.360;9.650;2023-12-28T18:28:13;22.67;;;15.40;;
46377;SDS011;32083;47.360;9.650;2023-12-28T18:30:40;27.17;;;18.67;;
46377;SDS011;32083;47.360;9.650;2023-12-28T18:33:06;27.77;;;19.13;;
46377;SDS011;32083;47.360;9.650;2023-12-28T18:35:32;19.98;;;16.48;;
46377;SDS011;32083;47.360;9.650;2023-12-28T18:37:58;23.08;;;16.83;;
46377;SDS011;32083;47.360;9.650;2023-12-28T18:40:24;22.67;;;17.42;;
46377;SDS011;32083;47.360;9.650;2023-12-28T18:42:50;21.55;;;17.88;;
46377;SDS011;32083;47.360;9.650;2023-12-28T18:45:17;23.50;;;17.35;;
46377;SDS011;32083;47.360;9.650;2023-12-28T18:47:43;22.25;;;17.20;;
46377;SDS011;32083;47.360;9.650;2023-12-28T18:50:11;23.55;;;17.45;;
46377;SDS011;32083;47.360;9.650;2023-12-28T18:52:37;25.40;;;20.25;;
46377;SDS011;32083;47.360;9.650;2023-12-28T18:55:03;28.80;;;21.52;;
46377;SDS011;32083;47.360;9.650;2023-12-28T18:57:30;26.35;;;18.67;;
46377;SDS011;32083;47.360;9.650;2023-12-28T18:59:56;24.25;;;19.58;;
46377;SDS011;32083;47.360;9.650;2023-12-28T19:02:22;23.75;;;19.40;;
46377;SDS011;32083;47.360;9.650;2023-12-28T19:04:48;23.88;;;18.60;;
46377;SDS011;32083;47.360;9.650;2023-12-28T19:07:14;28.67;;;20.88;;
46377;SDS011;32083;47.360;9.650;2023-12-28T19:09:40;26.52;;;20.42;;
46377;SDS011;32083;47.360;9.650;2023-12-28T19:12:07;22.50;;;17.90;;
46377;SDS011;32083;47.360;9.650;2023-12-28T19:14:34;24.10;;;18.67;;
46377;SDS011;32083;47.360;9.650;2023-12-28T19:17:00;24.25;;;17.92;;
46377;SDS011;32083;47.360;9.650;2023-12-28T19:19:26;25.13;;;19.02;;
46377;SDS011;32083;47.360;9.650;2023-12-28T19:21:56;25.80;;;20.00;;
46377;SDS011;32083;47.360;9.650;2023-12-28T19:24:22;24.80;;;18.92;;
46377;SDS011;32083;47.360;9.650;2023-12-28T19:26:48;27.13;;;18.13;;
46377;SDS011;32083;47.360;9.650;2023-12-28T19:29:14;28.02;;;19.65;;
46377;SDS011;32083;47.360;9.650;2023-12-28T19:31:40;25.80;;;20.52;;
46377;SDS011;32083;47.360;9.650;2023-12-28T19:34:06;38.10;;;27.00;;
46377;SDS011;32083;47.360;9.650;2023-12-28T19:36:35;26.15;;;18.98;;